Time;durP1;ratioP1;P1;durP2;ratioP2;P2;SDS_P1;SDS_P2;PMS_P1;PMS_P2;Temp;Humidity;BMP_temperature;BMP_pressure;BME280_temperature;BME280_humidity;BME280_pressure;Samples;Min_cycle;Max_cycle;Signal;HPM_P1;HPM_P2
2022/03/04 00:01:53;;;;;;;0.30;0.30;;;1.00;99.90;;;;;;5093615;28;20079;-73
2022/03/04 00:04:19;;;;;;;0.30;0.30;;;1.00;99.90;;;;;;5093548;28;20090;-74
2022/03/04 00:06:44;;;;;;;0.30;0.30;;;0.90;99.90;;;;;;5093437;28;20048;-73
2022/03/04 00:09:10;;;;;;;0.38;0.38;;;0.90;99.90;;;;;;5093687;28;20048;-73
2022/03/04 00:11:36;;;;;;;0.40;0.40;;;0.80;99.90;;;;;;5093488;28;20131;-73
2022/03/04 00:14:01;;;;;;;0.30;0.30;;;0.80;99.90;;;;;;5094295;28;20089;-74
2022/03/04 00:16:27;;;;;;;0.30;0.30;;;0.80;99.90;;;;;;5093369;28;20051;-74
2022/03/04 00:19:09;;;;;;;0.40;0.40;;;0.80;99.90;;;;;;5093850;28;20070;-73
2022/03/04 00:21:43;;;;;;;0.30;0.30;;;0.80;99.90;;;;;;5093603;28;20058;-73
2022/03/04 00:24:09;;;;;;;0.30;0.30;;;0.70;99.90;;;;;;5093530;28;20080;-73
2022/03/04 00:26:36;;;;;;;0.40;0.40;;;0.50;99.90;;;;;;5093615;28;20157;-73
2022/03/04 00:29:03;;;;;;;0.40;0.40;;;0.70;99.90;;;;;;5093570;28;20044;-73
2022/03/04 00:31:29;;;;;;;;;;;0.60;99.90;;;;;;5093961;28;20044;-73
2022/03/04 00:33:55;;;;;;;0.30;0.30;;;0.60;99.90;;;;;;5093527;28;19927;-74
2022/03/04 00:36:22;;;;;;;0.30;0.30;;;0.50;99.90;;;;;;5092607;28;20487;-74
2022/03/04 00:38:52;;;;;;;0.30;0.30;;;0.50;99.90;;;;;;5093482;28;20044;-73
2022/03/04 00:41:19;;;;;;;0.30;0.30;;;0.50;99.90;;;;;;5093520;28;20087;-75
2022/03/04 00:43:45;;;;;;;;;;;0.40;99.90;;;;;;5093841;28;20051;-74
2022/03/04 00:46:11;;;;;;;0.30;0.30;;;0.40;99.90;;;;;;5093290;28;20283;-72
2022/03/04 00:48:37;;;;;;;0.40;0.40;;;0.40;99.90;;;;;;5093660;28;20048;-73
2022/03/04 00:51:03;;;;;;;0.40;0.40;;;0.40;99.90;;;;;;5093142;28;20392;-74
2022/03/04 00:53:30;;;;;;;0.40;0.40;;;0.40;99.90;;;;;;5093316;28;20048;-73
2022/03/04 00:55:56;;;;;;;0.40;0.40;;;0.40;99.90;;;;;;5097005;28;20036;-72
2022/03/04 00:58:22;;;;;;;0.37;0.37;;;0.30;99.90;;;;;;5097583;28;20070;-73
2022/03/04 01:00:47;;;;;;;0.30;0.30;;;0.20;99.90;;;;;;5096933;28;20044;-73
2022/03/04 01:03:13;;;;;;;0.30;0.30;;;0.30;99.90;;;;;;5097008;28;20048;-72
2022/03/04 01:05:38;;;;;;;0.30;0.30;;;0.20;99.90;;;;;;5096592;28;20127;-74
2022/03/04 01:08:04;;;;;;;0.40;0.40;;;0.10;99.90;;;;;;5096886;28;20050;-72
2022/03/04 01:10:30;;;;;;;0.30;0.30;;;0.10;99.90;;;;;;5096786;28;20050;-74
2022/03/04 01:12:56;;;;;;;0.30;0.30;;;0.00;99.90;;;;;;5097023;28;20063;-72
2022/03/04 01:15:21;;;;;;;0.30;0.30;;;0.00;99.90;;;;;;5095457;28;20358;-73
2022/03/04 01:17:47;;;;;;;0.30;0.30;;;0.00;99.90;;;;;;5096404;28;20384;-74
2022/03/04 01:20:13;;;;;;;0.30;0.30;;;0.00;99.90;;;;;;5095502;28;20052;-73
2022/03/04 01:22:38;;;;;;;0.30;0.30;;;-0.10;99.90;;;;;;5096566;28;20048;-73
2022/03/04 01:25:04;;;;;;;0.30;0.30;;;-0.10;99.90;;;;;;5096449;28;20047;-73
2022/03/04 01:27:30;;;;;;;0.30;0.30;;;-0.20;99.90;;;;;;5096596;28;20036;-72
2022/03/04 01:29:56;;;;;;;0.38;0.38;;;-0.20;99.90;;;;;;5096534;28;20400;-73
2022/03/04 01:32:21;;;;;;;0.40;0.40;;;-0.20;99.90;;;;;;5096464;28;20040;-74
2022/03/04 01:34:47;;;;;;;0.30;0.30;;;-0.20;99.90;;;;;;5096247;28;20047;-74
2022/03/04 01:37:12;;;;;;;0.30;0.30;;;-0.30;99.90;;;;;;5096494;28;20127;-74
2022/03/04 01:39:38;;;;;;;0.40;0.40;;;-0.30;99.90;;;;;;5096279;28;20048;-73
2022/03/04 01:42:04;;;;;;;0.30;0.30;;;0.20;99.90;;;;;;5096845;28;20101;-72
2022/03/04 01:44:30;;;;;;;0.40;0.40;;;-0.40;99.90;;;;;;5096167;28;20048;-74
2022/03/04 01:46:56;;;;;;;0.40;0.40;;;-0.40;99.90;;;;;;5096140;28;20047;-73
2022/03/04 01:49:21;;;;;;;0.40;0.40;;;-0.50;99.90;;;;;;5096090;28;20044;-72
2022/03/04 01:51:47;;;;;;;0.40;0.40;;;-0.40;99.90;;;;;;5096009;28;20462;-72
2022/03/04 01:54:12;;;;;;;0.40;0.40;;;-0.40;99.90;;;;;;5096048;28;20055;-72
2022/03/04 01:56:38;;;;;;;0.30;0.30;;;-0.40;99.90;;;;;;5096364;28;20043;-73
2022/03/04 01:59:04;;;;;;;0.30;0.30;;;-0.50;99.90;;;;;;5095945;28;20127;-72
2022/03/04 02:01:30;;;;;;;0.30;0.30;;;-0.50;99.90;;;;;;5096122;28;20147;-73
2022/03/04 02:03:56;;;;;;;0.30;0.30;;;-0.40;99.90;;;;;;5096046;28;20044;-72
2022/03/04 02:06:21;;;;;;;0.35;0.35;;;-0.40;99.90;;;;;;5095747;28;20048;-73
2022/03/04 02:08:47;;;;;;;0.40;0.40;;;-0.50;99.90;;;;;;5095435;28;20051;-73
2022/03/04 02:11:13;;;;;;;0.40;0.40;;;-0.50;99.90;;;;;;5096134;28;20036;-72
2022/03/04 02:13:39;;;;;;;0.40;0.40;;;-0.10;99.90;;;;;;5096030;28;20553;-72
2022/03/04 02:16:18;;;;;;;0.40;0.40;;;-0.60;99.90;;;;;;5095630;28;20044;-72
2022/03/04 02:18:46;;;;;;;0.40;0.40;;;-0.60;99.90;;;;;;5095764;28;20464;-73
2022/03/04 02:21:13;;;;;;;0.40;0.40;;;-0.60;99.90;;;;;;5095435;28;20067;-72
2022/03/04 02:23:39;;;;;;;0.40;0.40;;;-0.60;99.90;;;;;;5095499;28;20050;-72
2022/03/04 02:26:05;;;;;;;0.40;0.40;;;-0.50;99.90;;;;;;5095310;28;20472;-73
2022/03/04 02:28:30;;;;;;;0.40;0.40;;;-0.60;99.90;;;;;;5095354;28;20040;-73
2022/03/04 02:30:56;;;;;;;0.35;0.35;;;-0.60;99.90;;;;;;5095349;28;20052;-73
2022/03/04 02:33:22;;;;;;;0.40;0.40;;;-0.40;99.90;;;;;;5094932;28;20421;-73
2022/03/04 02:35:48;;;;;;;0.40;0.40;;;-0.60;99.90;;;;;;5095114;28;20048;-72
2022/03/04 02:38:13;;;;;;;0.30;0.30;;;-0.60;99.90;;;;;;5095135;28;20151;-73
2022/03/04 02:40:39;;;;;;;0.40;0.40;;;-0.70;99.90;;;;;;5095085;28;20075;-72
2022/03/04 02:43:06;;;;;;;0.40;0.40;;;-0.70;99.90;;;;;;5095427;28;20044;-72
2022/03/04 02:45:33;;;;;;;0.40;0.40;;;-0.70;99.90;;;;;;5094988;28;20079;-72
2022/03/04 02:47:58;;;;;;;0.40;0.40;;;-0.80;99.90;;;;;;5094747;28;20050;-73
2022/03/04 02:50:24;;;;;;;0.40;0.40;;;-0.90;99.90;;;;;;5094894;28;20123;-73
2022/03/04 02:52:50;;;;;;;0.40;0.40;;;-0.80;99.90;;;;;;5094851;28;20381;-73
2022/03/04 02:55:15;;;;;;;0.40;0.40;;;-0.80;99.90;;;;;;5094842;28;20036;-73
2022/03/04 02:57:46;;;;;;;0.40;0.40;;;-0.80;99.90;;;;;;5094822;28;20048;-73
2022/03/04 03:00:13;;;;;;;0.40;0.40;;;-0.80;99.90;;;;;;5094993;28;20050;-71
2022/03/04 03:02:39;;;;;;;0.40;0.40;;;-0.90;99.90;;;;;;5094741;28;20086;-73
2022/03/04 03:05:06;;;;;;;0.40;0.40;;;-0.90;99.90;;;;;;5094562;28;20067;-73
2022/03/04 03:07:31;;;;;;;0.40;0.40;;;-0.80;99.90;;;;;;5094893;28;20040;-72
2022/03/04 03:09:57;;;;;;;0.40;0.40;;;-0.90;99.90;;;;;;5094778;28;20048;-73
2022/03/04 03:12:23;;;;;;;0.40;0.40;;;-0.90;99.90;;;;;;5093111;28;20051;-72
2022/03/04 03:14:48;;;;;;;0.40;0.40;;;-0.80;99.90;;;;;;5093478;28;20051;-73
2022/03/04 03:17:14;;;;;;;0.40;0.40;;;0.20;99.90;;;;;;5093974;28;20048;-74
2022/03/04 03:19:39;;;;;;;0.40;0.40;;;-0.90;99.90;;;;;;5094354;28;20039;-72
2022/03/04 03:22:05;;;;;;;0.40;0.40;;;-0.90;99.90;;;;;;5094684;28;20040;-73
2022/03/04 03:24:31;;;;;;;0.40;0.40;;;-0.80;99.90;;;;;;5094120;28;20484;-72
2022/03/04 03:26:57;;;;;;;0.40;0.40;;;-0.70;99.90;;;;;;5094648;28;20094;-72
2022/03/04 03:29:22;;;;;;;0.40;0.40;;;-0.70;99.90;;;;;;5094276;28;20089;-72
2022/03/04 03:31:48;;;;;;;0.40;0.40;;;-0.80;99.90;;;;;;5092948;28;20040;-72
2022/03/04 03:34:14;;;;;;;0.40;0.40;;;-0.30;99.90;;;;;;5094063;28;20079;-73
2022/03/04 03:36:40;;;;;;;0.40;0.40;;;-0.80;99.90;;;;;;5094126;28;20051;-73
2022/03/04 03:39:08;;;;;;;0.40;0.40;;;-0.80;99.90;;;;;;5094161;28;20040;-73
2022/03/04 03:41:34;;;;;;;0.40;0.40;;;-0.80;99.90;;;;;;5094065;28;20047;-72
2022/03/04 03:44:00;;;;;;;0.40;0.40;;;-0.80;99.90;;;;;;5094039;28;20055;-72
2022/03/04 03:46:26;;;;;;;0.40;0.40;;;-0.70;99.90;;;;;;5094032;28;20404;-71
2022/03/04 03:48:51;;;;;;;0.40;0.40;;;-0.70;99.90;;;;;;5093958;28;20036;-73
2022/03/04 03:51:17;;;;;;;0.40;0.40;;;-0.80;99.90;;;;;;5093662;28;20044;-71
2022/03/04 03:53:42;;;;;;;0.40;0.40;;;-0.70;99.90;;;;;;5093918;28;20044;-72
2022/03/04 03:56:08;;;;;;;0.40;0.40;;;-0.80;99.90;;;;;;5093878;28;20044;-73
2022/03/04 03:58:34;;;;;;;0.40;0.40;;;-0.80;99.90;;;;;;5093810;28;20044;-73
2022/03/04 04:01:00;;;;;;;0.40;0.40;;;-0.80;99.90;;;;;;5092700;28;20169;-73
2022/03/04 04:03:26;;;;;;;0.40;0.40;;;-0.70;99.90;;;;;;5093860;28;20050;-71
2022/03/04 04:05:51;;;;;;;0.40;0.40;;;-0.70;99.90;;;;;;5093567;28;20036;-72
2022/03/04 04:08:17;;;;;;;0.40;0.40;;;-0.20;99.90;;;;;;5094177;28;20048;-71
2022/03/04 04:10:42;;;;;;;0.40;0.40;;;-0.70;99.90;;;;;;5094019;28;20093;-73
2022/03/04 04:13:08;;;;;;;0.40;0.40;;;-0.60;99.90;;;;;;5093703;28;20135;-71
2022/03/04 04:15:33;;;;;;;0.40;0.40;;;-0.70;99.90;;;;;;5093842;28;20469;-72
2022/03/04 04:17:59;;;;;;;0.40;0.40;;;-0.70;99.90;;;;;;5093749;28;20047;-71
2022/03/04 04:20:24;;;;;;;0.40;0.40;;;-0.60;99.90;;;;;;5093580;28;20399;-72
2022/03/04 04:22:50;;;;;;;0.40;0.40;;;-0.60;99.90;;;;;;5093622;28;20055;-71
2022/03/04 04:25:15;;;;;;;0.40;0.40;;;-0.60;99.90;;;;;;5093563;28;20384;-72
2022/03/04 04:27:41;;;;;;;0.40;0.40;;;-0.60;99.90;;;;;;5093551;28;20387;-72
2022/03/04 04:30:07;;;;;;;0.40;0.40;;;-0.70;99.90;;;;;;5095588;28;20048;-72
2022/03/04 04:32:33;;;;;;;0.40;0.40;;;-0.60;99.90;;;;;;5097704;28;20048;-73
2022/03/04 04:34:58;;;;;;;0.40;0.40;;;-0.60;99.90;;;;;;5097463;28;20304;-72
2022/03/04 04:37:24;;;;;;;0.40;0.40;;;-0.60;99.90;;;;;;5097501;28;20047;-72
2022/03/04 04:39:49;;;;;;;0.38;0.38;;;-0.60;99.90;;;;;;5097465;28;20051;-73
2022/03/04 04:42:15;;;;;;;0.40;0.40;;;-0.70;99.90;;;;;;5097646;28;20046;-71
2022/03/04 04:44:41;;;;;;;0.40;0.40;;;-0.60;99.90;;;;;;5097307;28;20113;-73
2022/03/04 04:47:06;;;;;;;0.30;0.30;;;-0.60;99.90;;;;;;5097356;28;20036;-71
2022/03/04 04:49:36;;;;;;;0.40;0.40;;;-0.60;99.90;;;;;;5097264;28;20048;-72
2022/03/04 04:52:03;;;;;;;0.40;0.40;;;-0.60;99.90;;;;;;5097272;28;20051;-72
2022/03/04 04:54:29;;;;;;;;;;;-0.60;99.90;;;;;;5098036;28;20430;-72
2022/03/04 04:56:54;;;;;;;0.40;0.40;;;-0.60;99.90;;;;;;5097266;28;20002;-71
2022/03/04 04:59:20;;;;;;;0.40;0.40;;;-0.60;99.90;;;;;;5097083;28;20044;-72
2022/03/04 05:01:46;;;;;;;0.40;0.40;;;-0.60;99.90;;;;;;5097032;28;20392;-72
2022/03/04 05:04:11;;;;;;;0.40;0.40;;;-0.60;99.90;;;;;;5097015;28;20044;-72
2022/03/04 05:06:37;;;;;;;0.40;0.40;;;-0.60;99.90;;;;;;5097349;28;20040;-71
2022/03/04 05:09:02;;;;;;;0.40;0.40;;;-0.50;99.90;;;;;;5096942;28;20075;-72
2022/03/04 05:11:28;;;;;;;0.40;0.40;;;-0.60;99.90;;;;;;5096586;28;20090;-71
2022/03/04 05:13:54;;;;;;;0.40;0.40;;;-0.60;99.90;;;;;;5096862;28;20088;-73
2022/03/04 05:16:21;;;;;;;0.40;0.40;;;-0.50;99.90;;;;;;5096925;28;20036;-73
2022/03/04 05:18:47;;;;;;;0.40;0.40;;;-0.50;99.90;;;;;;5095448;28;20466;-73
2022/03/04 05:21:12;;;;;;;0.40;0.40;;;-0.50;99.90;;;;;;5096657;28;20047;-72
2022/03/04 05:26:22;;;;;;;0.40;0.40;;;-0.50;99.90;;;;;;5094936;28;20040;-72
2022/03/04 05:28:48;;;;;;;0.40;0.40;;;-0.50;99.90;;;;;;5096544;28;20047;-71
2022/03/04 05:31:14;;;;;;;0.40;0.40;;;-0.50;99.90;;;;;;5096445;28;20062;-71
2022/03/04 05:33:39;;;;;;;0.40;0.40;;;-0.50;99.90;;;;;;5096456;28;20381;-72
2022/03/04 05:36:05;;;;;;;0.30;0.30;;;-0.60;99.90;;;;;;5096372;28;20377;-71
2022/03/04 05:38:30;;;;;;;0.40;0.40;;;-0.50;99.90;;;;;;5095087;28;20131;-72
2022/03/04 05:40:56;;;;;;;0.40;0.40;;;-0.60;99.90;;;;;;5095913;28;20047;-71
2022/03/04 05:43:21;;;;;;;0.40;0.40;;;-0.60;99.90;;;;;;5096235;28;20487;-71
2022/03/04 05:45:47;;;;;;;0.40;0.40;;;-0.60;99.90;;;;;;5096151;28;20040;-71
2022/03/04 05:48:13;;;;;;;0.40;0.40;;;-0.60;99.90;;;;;;5096201;28;20040;-72
2022/03/04 05:50:38;;;;;;;0.40;0.40;;;-0.50;99.90;;;;;;5096222;28;20062;-73
2022/03/04 05:53:04;;;;;;;0.40;0.40;;;-0.50;99.90;;;;;;5096071;28;20048;-71
2022/03/04 05:55:29;;;;;;;0.40;0.40;;;-0.50;99.90;;;;;;5096202;28;20127;-73
2022/03/04 05:57:55;;;;;;;0.38;0.38;;;0.50;99.90;;;;;;5095056;28;20044;-72
2022/03/04 06:00:21;;;;;;;0.40;0.40;;;-0.60;99.90;;;;;;5096483;28;20043;-71
2022/03/04 06:02:47;;;;;;;0.40;0.40;;;-0.50;99.90;;;;;;5095853;28;20079;-73
2022/03/04 06:05:13;;;;;;;0.40;0.40;;;-0.50;99.90;;;;;;5096271;28;20044;-71
2022/03/04 06:07:38;;;;;;;0.40;0.40;;;-0.60;99.90;;;;;;5096220;28;20051;-73
2022/03/04 06:10:04;;;;;;;0.40;0.40;;;-0.90;99.90;;;;;;5095709;28;20475;-72
2022/03/04 06:12:30;;;;;;;0.40;0.40;;;-0.60;99.90;;;;;;5095809;28;20399;-72
2022/03/04 06:14:56;;;;;;;0.40;0.40;;;-0.60;99.90;;;;;;5095514;28;20040;-74
2022/03/04 06:17:21;;;;;;;0.40;0.40;;;-0.60;99.90;;;;;;5095366;28;20399;-73
2022/03/04 06:19:47;;;;;;;0.40;0.40;;;-0.60;99.90;;;;;;5095538;28;20105;-73
2022/03/04 06:22:13;;;;;;;0.40;0.40;;;-0.50;99.90;;;;;;5095530;28;20229;-72
2022/03/04 06:24:38;;;;;;;0.40;0.40;;;0.10;99.90;;;;;;5095099;28;20052;-72
2022/03/04 06:27:04;;;;;;;0.40;0.40;;;-0.50;99.90;;;;;;5094758;28;20048;-73
2022/03/04 06:29:29;;;;;;;0.40;0.40;;;-0.50;99.90;;;;;;5094075;28;20048;-73
2022/03/04 06:31:55;;;;;;;0.40;0.40;;;-0.50;99.90;;;;;;5095268;28;20442;-74
2022/03/04 06:34:21;;;;;;;0.40;0.40;;;-0.60;99.90;;;;;;5094957;28;20048;-73
2022/03/04 06:36:46;;;;;;;0.40;0.40;;;-0.60;99.90;;;;;;5095222;28;20178;-74
2022/03/04 06:39:12;;;;;;;0.40;0.40;;;-0.60;99.90;;;;;;5095004;28;20051;-74
2022/03/04 06:41:37;;;;;;;0.40;0.40;;;0.20;99.90;;;;;;5095009;28;20044;-74
2022/03/04 06:44:04;;;;;;;0.40;0.40;;;-0.50;99.90;;;;;;5095225;28;20048;-73
2022/03/04 06:46:29;;;;;;;0.40;0.40;;;-0.50;99.90;;;;;;5095052;28;20048;-73
2022/03/04 06:48:55;;;;;;;0.40;0.40;;;-0.50;99.90;;;;;;5094864;28;20043;-73
2022/03/04 06:51:21;;;;;;;0.40;0.40;;;-0.40;99.90;;;;;;5095061;28;20502;-73
2022/03/04 06:53:46;;;;;;;0.40;0.40;;;-0.40;99.90;;;;;;5094862;28;20044;-74
2022/03/04 06:56:15;;;;;;;0.40;0.40;;;-0.40;99.90;;;;;;5094789;28;20127;-74
2022/03/04 06:58:41;;;;;;;0.40;0.40;;;-0.40;99.90;;;;;;5094969;28;20044;-73
2022/03/04 07:01:07;;;;;;;0.40;0.40;;;-0.40;99.90;;;;;;5094761;28;20358;-73
2022/03/04 07:03:33;;;;;;;0.40;0.40;;;-0.40;99.90;;;;;;5094633;28;20233;-74
2022/03/04 07:05:58;;;;;;;0.40;0.40;;;-0.30;99.90;;;;;;5094587;28;20236;-74
2022/03/04 07:08:24;;;;;;;0.40;0.40;;;-0.30;99.90;;;;;;5095010;28;20127;-73
2022/03/04 07:10:49;;;;;;;0.40;0.40;;;-0.40;99.90;;;;;;5094552;28;20044;-73
2022/03/04 07:13:15;;;;;;;0.40;0.40;;;-0.40;99.90;;;;;;5094455;28;20055;-74
2022/03/04 07:15:41;;;;;;;0.40;0.40;;;-0.30;99.90;;;;;;5094520;28;20056;-73
2022/03/04 07:18:07;;;;;;;0.40;0.40;;;-0.10;99.90;;;;;;5094405;28;20047;-73
2022/03/04 07:20:33;;;;;;;0.40;0.40;;;-0.30;99.90;;;;;;5094739;28;20040;-74
2022/03/04 07:22:59;;;;;;;0.40;0.40;;;-0.40;99.90;;;;;;5094436;28;20205;-75
2022/03/04 07:25:24;;;;;;;0.30;0.30;;;-0.30;99.90;;;;;;5094124;28;20040;-72
2022/03/04 07:27:50;;;;;;;0.40;0.40;;;-0.30;99.90;;;;;;5094313;28;20040;-74
2022/03/04 07:30:16;;;;;;;0.40;0.40;;;-0.30;99.90;;;;;;5094249;28;20127;-74
2022/03/04 07:32:43;;;;;;;0.40;0.40;;;-0.30;99.90;;;;;;5094230;28;20123;-73
2022/03/04 07:35:11;;;;;;;0.40;0.40;;;0.30;99.90;;;;;;5094205;28;20036;-75
2022/03/04 07:37:38;;;;;;;0.30;0.30;;;-0.10;99.90;;;;;;5094059;28;20059;-73
2022/03/04 07:40:06;;;;;;;0.40;0.40;;;0.00;99.90;;;;;;5094085;28;20055;-73
2022/03/04 07:42:32;;;;;;;0.40;0.40;;;0.00;99.90;;;;;;5094034;28;20131;-76
2022/03/04 07:44:57;;;;;;;0.40;0.40;;;0.00;99.90;;;;;;5094008;28;20128;-75
2022/03/04 07:47:23;;;;;;;0.40;0.40;;;0.10;99.90;;;;;;5093962;28;20066;-74
2022/03/04 07:49:48;;;;;;;0.40;0.40;;;0.10;99.90;;;;;;5093958;28;20040;-75
2022/03/04 07:52:14;;;;;;;0.40;0.40;;;0.10;99.90;;;;;;5094116;28;20407;-72
2022/03/04 07:54:40;;;;;;;0.40;0.40;;;0.10;99.90;;;;;;5093780;28;20046;-74
2022/03/04 07:57:06;;;;;;;0.40;0.40;;;1.20;99.90;;;;;;5093765;28;20476;-73
2022/03/04 07:59:32;;;;;;;0.40;0.40;;;0.20;99.90;;;;;;5093936;28;20047;-72
2022/03/04 08:01:57;;;;;;;0.40;0.40;;;0.30;99.90;;;;;;5093831;28;20403;-72
2022/03/04 08:04:23;;;;;;;0.40;0.40;;;0.30;99.90;;;;;;5094074;28;20044;-72
2022/03/04 08:06:49;;;;;;;0.40;0.40;;;0.30;99.90;;;;;;5094152;28;20044;-71
2022/03/04 08:09:14;;;;;;;0.40;0.40;;;0.40;99.90;;;;;;5093685;28;20067;-71
2022/03/04 08:11:40;;;;;;;0.40;0.40;;;0.40;99.90;;;;;;5093566;28;20051;-71
2022/03/04 08:14:05;;;;;;;0.40;0.40;;;0.50;99.90;;;;;;5093758;28;20040;-71
2022/03/04 08:16:33;;;;;;;0.40;0.40;;;0.60;99.90;;;;;;5093666;28;20043;-70
2022/03/04 08:18:58;;;;;;;;;;;0.60;99.90;;;;;;5090707;28;20079;-71
2022/03/04 08:21:25;;;;;;;0.40;0.40;;;0.70;99.90;;;;;;5092325;28;19968;-72
2022/03/04 08:23:51;;;;;;;0.40;0.40;;;1.40;99.90;;;;;;5093368;28;20491;-72
2022/03/04 08:26:16;;;;;;;0.40;0.40;;;0.70;99.90;;;;;;5093197;28;20127;-72
2022/03/04 08:28:42;;;;;;;0.40;0.40;;;0.70;99.90;;;;;;5093366;28;20123;-71
2022/03/04 08:31:11;;;;;;;0.40;0.40;;;0.70;99.90;;;;;;5093247;28;20090;-71
2022/03/04 08:33:41;;;;;;;0.30;0.30;;;0.60;99.90;;;;;;5093260;28;20070;-72
2022/03/04 08:36:07;;;;;;;0.40;0.40;;;0.70;99.90;;;;;;5092075;28;20040;-73
2022/03/04 08:38:33;;;;;;;0.40;0.40;;;0.70;99.90;;;;;;5093353;28;20161;-72
2022/03/04 08:40:58;;;;;;;0.40;0.40;;;0.70;99.90;;;;;;5092927;28;20055;-72
2022/03/04 08:43:24;;;;;;;0.40;0.40;;;0.70;99.90;;;;;;5093044;28;20066;-72
2022/03/04 08:45:49;;;;;;;0.40;0.40;;;0.70;99.90;;;;;;5093006;28;20063;-72
2022/03/04 08:48:15;;;;;;;0.40;0.40;;;0.80;99.90;;;;;;5093161;28;20043;-72
2022/03/04 08:50:41;;;;;;;0.40;0.40;;;0.80;99.90;;;;;;5092934;28;20092;-74
2022/03/04 08:53:06;;;;;;;0.40;0.40;;;0.80;99.90;;;;;;5093531;28;20087;-75
2022/03/04 08:55:32;;;;;;;0.30;0.30;;;0.80;99.90;;;;;;5091833;28;20101;-73
2022/03/04 08:57:58;;;;;;;0.40;0.40;;;0.80;99.90;;;;;;5092842;28;20419;-73
2022/03/04 09:00:24;;;;;;;0.40;0.40;;;0.80;99.90;;;;;;5092880;28;20138;-76
2022/03/04 09:02:50;;;;;;;0.40;0.40;;;0.90;99.90;;;;;;5092239;28;20044;-73
2022/03/04 09:05:17;;;;;;;0.40;0.40;;;1.00;99.90;;;;;;5092472;28;20051;-73
2022/03/04 09:07:43;;;;;;;0.30;0.30;;;1.00;99.90;;;;;;5092943;28;20040;-74
2022/03/04 09:10:09;;;;;;;0.30;0.30;;;1.10;99.90;;;;;;5092252;28;20072;-73
2022/03/04 09:12:35;;;;;;;0.40;0.40;;;1.30;99.90;;;;;;5092589;28;20066;-74
2022/03/04 09:15:02;;;;;;;0.40;0.40;;;1.30;99.90;;;;;;5092798;28;20507;-73
2022/03/04 09:17:28;;;;;;;0.30;0.30;;;1.30;99.90;;;;;;5096569;28;20511;-71
2022/03/04 09:19:54;;;;;;;0.30;0.30;;;1.30;99.90;;;;;;5096243;28;20137;-73
2022/03/04 09:22:19;;;;;;;0.30;0.30;;;1.50;99.90;;;;;;5096540;28;20472;-73
2022/03/04 09:24:45;;;;;;;0.30;0.30;;;1.50;99.90;;;;;;5096160;28;20387;-73
2022/03/04 09:27:11;;;;;;;0.40;0.40;;;1.50;99.90;;;;;;5096363;28;20039;-77
2022/03/04 09:29:37;;;;;;;0.30;0.30;;;1.50;99.90;;;;;;5095180;28;20048;-79
2022/03/04 09:32:03;;;;;;;0.40;0.40;;;1.50;99.90;;;;;;5096208;28;20060;-74
2022/03/04 09:34:29;;;;;;;0.40;0.40;;;1.50;99.90;;;;;;5096164;28;20044;-73
2022/03/04 09:36:55;;;;;;;0.30;0.30;;;1.50;99.90;;;;;;5095644;28;20109;-74
2022/03/04 09:39:20;;;;;;;0.30;0.30;;;1.50;99.90;;;;;;5094930;28;20048;-74
2022/03/04 09:41:46;;;;;;;0.35;0.35;;;1.60;99.90;;;;;;5096056;28;20043;-75
2022/03/04 09:44:13;;;;;;;0.40;0.40;;;1.70;99.90;;;;;;5096000;28;20073;-75
2022/03/04 09:46:41;;;;;;;0.30;0.30;;;1.90;99.90;;;;;;5095251;28;20127;-73
2022/03/04 09:49:08;;;;;;;0.30;0.30;;;2.10;99.90;;;;;;5095915;28;20123;-75
2022/03/04 09:51:34;;;;;;;0.40;0.40;;;2.10;99.90;;;;;;5096224;28;20480;-73
2022/03/04 09:54:00;;;;;;;0.40;0.40;;;2.20;99.90;;;;;;5095638;28;20096;-76
2022/03/04 09:56:25;;;;;;;0.30;0.30;;;2.30;99.90;;;;;;5095991;28;20086;-74
2022/03/04 09:58:51;;;;;;;0.40;0.40;;;2.40;99.90;;;;;;5094647;28;20165;-74
2022/03/04 10:01:17;;;;;;;0.30;0.30;;;2.50;99.90;;;;;;5095293;28;20090;-75
2022/03/04 10:03:49;;;;;;;0.30;0.30;;;2.50;99.90;;;;;;5095634;28;20048;-74
2022/03/04 10:06:16;;;;;;;0.30;0.30;;;2.60;99.90;;;;;;5095673;28;20085;-75
2022/03/04 10:08:44;;;;;;;0.30;0.30;;;2.60;99.90;;;;;;5095501;28;20046;-73
2022/03/04 10:11:11;;;;;;;0.30;0.30;;;2.60;99.90;;;;;;5095653;28;20044;-74
2022/03/04 10:13:46;;;;;;;;;;;2.60;99.90;;;;;;5095293;28;20484;-74
2022/03/04 10:16:23;;;;;;;0.30;0.30;;;2.70;99.90;;;;;;5095565;28;19920;-72
2022/03/04 10:19:07;;;;;;;0.40;0.40;;;2.80;99.90;;;;;;5095480;28;20040;-75
2022/03/04 10:21:49;;;;;;;0.40;0.40;;;2.80;99.90;;;;;;5094641;28;20052;-74
2022/03/04 10:24:39;;;;;;;0.30;0.30;;;2.80;99.90;;;;;;5095239;28;20044;-73
2022/03/04 10:27:07;;;;;;;0.30;0.30;;;2.80;99.90;;;;;;5094252;28;20048;-73
2022/03/04 10:29:35;;;;;;;0.30;0.30;;;2.90;99.90;;;;;;5095147;28;20108;-75
2022/03/04 10:32:23;;;;;;;0.30;0.30;;;2.90;99.90;;;;;;5095195;28;20040;-75
2022/03/04 10:34:52;;;;;;;0.30;0.30;;;2.90;99.90;;;;;;5094899;28;20253;-75
2022/03/04 10:37:43;;;;;;;0.30;0.30;;;2.90;99.90;;;;;;5094099;28;20048;-74
2022/03/04 10:40:15;;;;;;;0.30;0.30;;;3.00;99.90;;;;;;5094164;28;20083;-75
2022/03/04 10:42:47;;;;;;;0.30;0.30;;;3.10;99.90;;;;;;5094901;28;20043;-75
2022/03/04 10:45:15;;;;;;;0.30;0.30;;;3.20;99.90;;;;;;5094346;28;20669;-74
2022/03/04 10:47:51;;;;;;;0.30;0.30;;;3.40;99.90;;;;;;5094823;28;20492;-73
2022/03/04 10:50:33;;;;;;;0.30;0.30;;;3.50;99.90;;;;;;5094880;28;20044;-75
2022/03/04 10:53:05;;;;;;;0.30;0.30;;;3.60;99.90;;;;;;5094731;28;20044;-74
2022/03/04 10:55:36;;;;;;;0.30;0.30;;;3.60;99.90;;;;;;5094674;28;20040;-75
2022/03/04 10:58:12;;;;;;;0.30;0.30;;;3.70;99.90;;;;;;5094696;28;20040;-74
2022/03/04 11:00:38;;;;;;;0.30;0.30;;;3.60;99.90;;;;;;5094698;28;20040;-82
2022/03/04 11:03:07;;;;;;;0.30;0.30;;;3.80;99.90;;;;;;5094352;28;20385;-79
2022/03/04 11:05:34;;;;;;;0.30;0.30;;;3.80;99.90;;;;;;5076370;28;20044;-74
2022/03/04 11:07:59;;;;;;;0.30;0.30;;;3.90;99.90;;;;;;5094135;28;20040;-78
2022/03/04 11:10:25;;;;;;;0.30;0.30;;;4.00;99.90;;;;;;5094525;28;20499;-78
2022/03/04 11:12:53;;;;;;;0.30;0.30;;;4.10;99.90;;;;;;5094061;28;20088;-77
2022/03/04 11:15:20;;;;;;;0.30;0.30;;;4.20;99.90;;;;;;5094433;28;20044;-77
2022/03/04 11:17:47;;;;;;;0.30;0.30;;;4.30;99.90;;;;;;5094234;28;20405;-77
2022/03/04 11:20:13;;;;;;;0.30;0.30;;;4.40;99.90;;;;;;5094030;28;20052;-80
2022/03/04 11:22:41;;;;;;;0.30;0.30;;;4.50;99.90;;;;;;5094127;28;20040;-77
2022/03/04 11:25:17;;;;;;;0.30;0.30;;;4.60;99.90;;;;;;5094990;28;20046;-76
2022/03/04 11:27:45;;;;;;;0.30;0.30;;;4.70;99.90;;;;;;5095370;28;20040;-83
2022/03/04 11:30:37;;;;;;;0.30;0.30;;;4.70;99.90;;;;;;5093298;28;20435;-82
2022/03/04 11:33:12;;;;;;;0.30;0.30;;;4.80;99.90;;;;;;5094302;28;20434;-77
2022/03/04 11:35:41;;;;;;;0.30;0.30;;;5.00;99.90;;;;;;5092856;28;20138;-76
2022/03/04 11:38:07;;;;;;;0.30;0.30;;;5.10;99.90;;;;;;5093619;28;20388;-79
2022/03/04 11:40:35;;;;;;;0.30;0.30;;;5.10;99.90;;;;;;5093893;28;20515;-75
2022/03/04 11:43:02;;;;;;;0.30;0.30;;;5.20;99.90;;;;;;5093824;28;20056;-77
2022/03/04 11:45:32;;;;;;;0.30;0.30;;;5.20;99.90;;;;;;5093852;28;20488;-77
2022/03/04 11:48:04;;;;;;;0.30;0.30;;;5.30;99.90;;;;;;5092867;28;20048;-80
2022/03/04 11:50:33;;;;;;;0.30;0.30;;;5.40;99.90;;;;;;5094049;28;20107;-82
2022/03/04 11:53:20;;;;;;;0.30;0.30;;;5.60;99.90;;;;;;5101889;28;20437;-84
2022/03/04 11:56:07;;;;;;;0.20;0.20;;;5.70;99.90;;;;;;5094006;28;20048;-84
2022/03/04 11:59:18;;;;;;;0.30;0.30;;;5.70;99.90;;;;;;5093792;28;20044;-77
2022/03/04 12:01:45;;;;;;;0.30;0.30;;;5.90;99.90;;;;;;5049223;28;20536;-78
2022/03/04 12:04:18;;;;;;;0.28;0.28;;;6.00;99.90;;;;;;5048829;28;20049;-74
2022/03/04 12:07:04;;;;;;;0.20;0.20;;;6.00;99.90;;;;;;5074603;28;20055;-74
2022/03/04 12:09:31;;;;;;;0.30;0.30;;;6.10;99.90;;;;;;5093008;28;20051;-74
2022/03/04 12:12:09;;;;;;;0.30;0.30;;;6.30;99.90;;;;;;5093366;28;20044;-76
2022/03/04 12:14:35;;;;;;;0.30;0.30;;;6.30;99.90;;;;;;5092910;28;20594;-76
2022/03/04 12:17:01;;;;;;;0.30;0.30;;;6.40;99.90;;;;;;5092957;28;20135;-75
2022/03/04 12:19:34;;;;;;;0.30;0.30;;;6.50;99.90;;;;;;5093382;28;20044;-76
2022/03/04 12:22:00;;;;;;;0.30;0.30;;;6.70;99.90;;;;;;5093431;28;20048;-75
2022/03/04 12:24:34;;;;;;;0.28;0.28;;;6.70;99.90;;;;;;5109125;28;20135;-76
2022/03/04 12:27:02;;;;;;;0.30;0.30;;;6.80;99.90;;;;;;5093226;28;20036;-77
2022/03/04 12:29:50;;;;;;;0.20;0.20;;;6.90;99.90;;;;;;5093263;28;20045;-75
2022/03/04 12:32:15;;;;;;;;;;;7.00;99.90;;;;;;5093905;28;20040;-75
2022/03/04 12:34:50;;;;;;;0.20;0.20;;;7.10;99.90;;;;;;5093321;28;19920;-75
2022/03/04 12:37:16;;;;;;;0.30;0.30;;;7.20;99.90;;;;;;5092195;28;20048;-75
2022/03/04 12:39:46;;;;;;;0.20;0.20;;;7.20;99.90;;;;;;5093365;28;20458;-75
2022/03/04 12:42:12;;;;;;;0.20;0.20;;;7.30;99.90;;;;;;5093227;28;20051;-75
2022/03/04 12:44:38;;;;;;;0.20;0.20;;;7.40;99.90;;;;;;5093216;28;20035;-77
2022/03/04 12:47:03;;;;;;;0.20;0.20;;;7.50;99.90;;;;;;5092808;28;20119;-74
2022/03/04 12:49:31;;;;;;;0.20;0.20;;;7.50;99.90;;;;;;5093262;28;20047;-75
2022/03/04 12:51:57;;;;;;;0.20;0.20;;;7.60;99.90;;;;;;5096358;28;20123;-75
2022/03/04 12:54:30;;;;;;;0.20;0.20;;;7.70;99.90;;;;;;5097164;28;20051;-77
2022/03/04 12:56:59;;;;;;;0.20;0.20;;;7.80;99.90;;;;;;5097059;28;20043;-77